Time;durP1;ratioP1;P1;durP2;ratioP2;P2;SDS_P1;SDS_P2;PMS_P1;PMS_P2;Temp;Humidity;BMP_temperature;BMP_pressure;BME280_temperature;BME280_humidity;BME280_pressure;Samples;Min_cycle;Max_cycle;Signal;HPM_P1;HPM_P2
2021/08/11 00:00:14;;;;;;;19.25;11.68;;;;;;;20.95;71.63;95144.75;5106191;28;20047;-69
2021/08/11 00:02:40;;;;;;;19.73;12.15;;;;;;;20.36;73.80;95138.94;5107592;27;20050;-69
2021/08/11 00:05:08;;;;;;;17.45;12.52;;;;;;;20.12;74.50;95144.28;5107672;27;20543;-69
2021/08/11 00:07:35;;;;;;;16.20;11.35;;;;;;;20.32;73.89;95149.31;5107386;28;20499;-69
2021/08/11 00:10:03;;;;;;;26.40;12.43;;;;;;;20.44;73.51;95144.38;5106937;28;20118;-69
2021/08/11 00:12:30;;;;;;;26.05;13.35;;;;;;;20.12;75.66;95139.00;5107417;27;20394;-69
2021/08/11 00:14:56;;;;;;;20.00;12.95;;;;;;;20.24;74.81;95147.31;5109255;27;20501;-69
2021/08/11 00:17:23;;;;;;;12.05;10.45;;;;;;;20.27;75.13;95144.09;5107901;28;20609;-69
2021/08/11 00:19:50;;;;;;;13.73;11.02;;;;;;;20.21;74.27;95142.59;5107855;28;20054;-70
2021/08/11 00:22:17;;;;;;;19.30;12.02;;;;;;;20.32;73.83;95144.03;5108180;27;20550;-69
2021/08/11 00:24:44;;;;;;;16.65;10.85;;;;;;;20.36;74.47;95137.09;5108849;27;20532;-69
2021/08/11 00:27:10;;;;;;;12.65;10.40;;;;;;;20.46;72.74;95132.75;5107878;27;20039;-70
2021/08/11 00:29:37;;;;;;;18.50;10.05;;;;;;;20.54;72.79;95134.75;5107798;28;20054;-70
2021/08/11 00:32:05;;;;;;;15.30;11.02;;;;;;;20.58;72.30;95128.59;5092334;27;20544;-69
2021/08/11 00:34:31;;;;;;;16.95;10.77;;;;;;;20.47;72.90;95118.44;5107518;27;20185;-70
2021/08/11 00:36:59;;;;;;;14.43;11.27;;;;;;;20.47;72.35;95139.59;5088701;28;20050;-69
2021/08/11 00:39:30;;;;;;;20.90;10.63;;;;;;;20.49;72.88;95137.44;5089216;28;20141;-69
2021/08/11 00:41:57;;;;;;;19.08;11.75;;;;;;;20.47;72.38;95139.59;5089296;28;20123;-69
2021/08/11 00:44:25;;;;;;;16.80;11.57;;;;;;;20.45;72.87;95145.16;5088881;28;20066;-69
2021/08/11 00:46:52;;;;;;;15.18;11.43;;;;;;;20.40;73.10;95140.75;5106586;27;20112;-69
2021/08/11 00:49:20;;;;;;;20.65;13.02;;;;;;;20.40;72.96;95151.34;5087821;28;20044;-69
2021/08/11 00:51:50;;;;;;;17.38;11.55;;;;;;;20.35;72.85;95148.75;5088595;28;20082;-69
2021/08/11 00:54:19;;;;;;;13.63;11.57;;;;;;;20.34;72.85;95152.44;5090324;28;20043;-69
2021/08/11 00:56:48;;;;;;;17.52;11.75;;;;;;;20.35;73.31;95154.03;5088728;28;20498;-69
2021/08/11 00:59:17;;;;;;;21.60;12.35;;;;;;;20.37;73.56;95146.59;5087082;28;20402;-69
2021/08/11 01:01:49;;;;;;;18.30;12.57;;;;;;;20.33;73.83;95135.03;5086744;28;20044;-69
2021/08/11 01:04:18;;;;;;;19.08;12.00;;;;;;;20.32;73.89;95141.38;5086810;28;20055;-69
2021/08/11 01:06:45;;;;;;;18.27;13.20;;;;;;;20.27;73.92;95136.16;5088412;28;20053;-69
2021/08/11 01:09:15;;;;;;;24.83;12.50;;;;;;;20.28;74.52;95129.03;5087405;28;20052;-69
2021/08/11 01:11:52;;;;;;;20.15;13.32;;;;;;;20.24;74.26;95126.16;5086770;28;20651;-69
2021/08/11 01:14:21;;;;;;;19.10;12.52;;;;;;;20.25;74.54;95127.72;5088253;28;20047;-69
2021/08/11 01:16:50;;;;;;;21.02;12.43;;;;;;;20.24;73.82;95115.59;5087594;28;20040;-69
2021/08/11 01:19:20;;;;;;;21.42;12.95;;;;;;;20.22;73.72;95115.06;5087572;28;20130;-69
2021/08/11 01:22:16;;;;;;;25.95;12.25;;;;;;;20.24;73.73;95110.28;5087942;28;20048;-69
2021/08/11 01:24:46;;;;;;;;;;;;;;;20.21;74.33;95111.63;5087658;28;20048;-69
2021/08/11 01:28:21;;;;;;;22.17;12.75;;;;;;;20.27;73.73;95112.34;5088054;27;20006;-68
2021/08/11 01:31:14;;;;;;;16.45;11.57;;;;;;;20.32;74.01;95117.56;5008568;28;20062;-69
2021/08/11 01:33:53;;;;;;;24.65;12.35;;;;;;;20.34;74.00;95118.06;5086736;28;20425;-68
2021/08/11 01:36:29;;;;;;;17.27;13.20;;;;;;;20.40;74.29;95116.13;5087587;28;20040;-68
2021/08/11 01:39:06;;;;;;;;;;;;;;;20.41;73.25;95118.50;5088418;28;20133;-68
2021/08/11 01:41:38;;;;;;;23.08;12.95;;;;;;;20.36;73.47;95113.28;5088741;28;19923;-68
2021/08/11 01:44:07;;;;;;;20.05;12.85;;;;;;;20.34;73.50;95110.13;5087581;28;20039;-68
2021/08/11 01:46:40;;;;;;;18.95;12.95;;;;;;;20.32;74.59;95107.00;5087424;28;20082;-68
2021/08/11 01:49:11;;;;;;;18.02;12.27;;;;;;;19.68;77.65;95103.81;5086829;28;20035;-69
2021/08/11 01:51:47;;;;;;;16.10;12.02;;;;;;;19.65;77.39;95105.13;5086188;28;20047;-69
2021/08/11 01:54:16;;;;;;;15.77;11.95;;;;;;;19.73;76.98;95100.31;5087184;28;20059;-69
2021/08/11 01:56:45;;;;;;;14.75;11.75;;;;;;;19.80;76.20;95101.56;5087075;28;20055;-69
2021/08/11 01:59:15;;;;;;;19.00;12.15;;;;;;;19.84;75.65;95101.78;5087149;28;20047;-68
2021/08/11 02:01:44;;;;;;;20.30;12.80;;;;;;;19.83;75.47;95102.88;5086357;28;20047;-68
2021/08/11 02:04:15;;;;;;;16.80;11.60;;;;;;;19.80;75.79;95111.34;5087473;28;20123;-68
2021/08/11 02:06:43;;;;;;;14.57;11.02;;;;;;;19.79;75.16;95100.00;5106074;28;20066;-68
2021/08/11 02:09:15;;;;;;;20.23;11.55;;;;;;;19.71;76.05;95107.72;5089559;28;20082;-68
2021/08/11 02:11:41;;;;;;;16.20;11.55;;;;;;;19.72;75.78;95104.03;5105862;28;20089;-68
2021/08/11 02:14:11;;;;;;;15.35;10.15;;;;;;;19.72;75.26;95119.88;5090737;28;20508;-68
2021/08/11 02:16:41;;;;;;;14.90;11.18;;;;;;;19.75;74.74;95116.69;5093116;28;20074;-68
2021/08/11 02:19:09;;;;;;;17.50;10.80;;;;;;;19.78;74.52;95124.06;5108298;28;20074;-69
2021/08/11 02:21:38;;;;;;;13.80;10.45;;;;;;;19.76;74.42;95123.56;5091248;28;20116;-68
2021/08/11 02:24:07;;;;;;;19.67;11.05;;;;;;;19.76;74.90;95105.06;5091303;28;20126;-68
2021/08/11 02:26:52;;;;;;;19.13;11.88;;;;;;;19.79;74.55;95120.34;5091163;28;20051;-68
2021/08/11 02:29:47;;;;;;;15.20;11.85;;;;;;;19.70;75.20;95112.22;5091465;28;20508;-69
2021/08/11 02:32:34;;;;;;;14.70;11.02;;;;;;;19.53;75.45;95117.94;5093542;27;20412;-69
2021/08/11 02:35:04;;;;;;;14.48;11.95;;;;;;;19.48;75.17;95118.00;5090477;28;20056;-69
2021/08/11 02:37:53;;;;;;;14.70;11.02;;;;;;;19.39;75.43;95122.31;5091183;28;20039;-68
2021/08/11 02:40:34;;;;;;;15.48;12.43;;;;;;;19.35;76.25;95121.31;5091357;28;20079;-69
2021/08/11 02:43:08;;;;;;;16.73;12.65;;;;;;;19.32;75.75;95122.66;5090921;28;20050;-68
2021/08/11 02:45:39;;;;;;;22.05;12.32;;;;;;;19.34;75.55;95125.00;5091406;28;20048;-68
2021/08/11 02:48:10;;;;;;;19.45;12.38;;;;;;;19.33;75.62;95131.38;5091081;28;20051;-68
2021/08/11 02:50:39;;;;;;;14.55;12.25;;;;;;;19.32;75.83;95127.13;5090683;27;20043;-68
2021/08/11 02:53:07;;;;;;;15.05;12.48;;;;;;;19.35;75.67;95123.94;5090859;28;20543;-68
2021/08/11 02:55:37;;;;;;;14.95;11.90;;;;;;;19.35;75.73;95131.88;5090572;28;20050;-68
2021/08/11 02:58:05;;;;;;;16.40;12.02;;;;;;;19.26;75.53;95124.53;5109477;28;20058;-68
2021/08/11 03:00:33;;;;;;;14.63;12.18;;;;;;;19.27;75.82;95131.41;5109232;27;20054;-69
2021/08/11 03:03:02;;;;;;;14.68;13.23;;;;;;;19.25;76.18;95125.63;5088898;27;20493;-69
2021/08/11 03:05:32;;;;;;;13.63;11.63;;;;;;;19.20;76.24;95112.47;5093454;28;20059;-69
2021/08/11 03:08:00;;;;;;;18.67;12.63;;;;;;;19.23;75.70;95119.03;5107915;28;20521;-69
2021/08/11 03:10:27;;;;;;;15.15;12.43;;;;;;;19.19;76.03;95121.44;5090535;28;20055;-69
2021/08/11 03:12:56;;;;;;;14.35;12.73;;;;;;;19.21;75.81;95127.25;5108841;28;20042;-69
2021/08/11 03:15:25;;;;;;;15.90;11.88;;;;;;;19.18;76.05;95133.06;5108586;27;20096;-68
2021/08/11 03:17:52;;;;;;;22.05;12.55;;;;;;;19.16;76.07;95119.38;5108710;27;20043;-69
2021/08/11 03:20:20;;;;;;;19.67;12.60;;;;;;;19.15;76.01;95125.72;5090314;28;20517;-69
2021/08/11 03:22:46;;;;;;;16.88;12.68;;;;;;;19.10;76.42;95109.91;5088945;28;20044;-69
2021/08/11 03:25:14;;;;;;;13.85;11.80;;;;;;;19.03;76.48;95115.53;5090916;28;20088;-69
2021/08/11 03:27:41;;;;;;;18.35;13.70;;;;;;;19.01;76.65;95116.84;5093222;28;20069;-69
2021/08/11 03:30:12;;;;;;;17.25;12.75;;;;;;;18.94;77.73;95121.66;5089743;28;20039;-68
2021/08/11 03:32:39;;;;;;;22.52;13.13;;;;;;;18.91;77.99;95123.00;5089880;28;20047;-69
2021/08/11 03:35:07;;;;;;;17.63;13.50;;;;;;;18.94;77.54;95126.94;5091703;28;20504;-68
2021/08/11 03:37:34;;;;;;;25.48;12.30;;;;;;;18.98;77.54;95122.66;5090006;28;20067;-68
2021/08/11 03:40:05;;;;;;;24.63;13.18;;;;;;;19.01;77.33;95127.41;5089408;28;20509;-69
2021/08/11 03:42:31;;;;;;;19.67;12.23;;;;;;;18.96;77.65;95114.25;5089086;28;20048;-69
2021/08/11 03:44:59;;;;;;;22.40;11.93;;;;;;;19.05;77.41;95128.41;5088955;27;20138;-68
2021/08/11 03:47:26;;;;;;;14.02;11.95;;;;;;;19.12;77.34;95134.16;5089775;28;20052;-69
2021/08/11 03:49:53;;;;;;;18.83;12.57;;;;;;;19.07;77.54;95126.31;5091235;28;20101;-68
2021/08/11 03:52:21;;;;;;;17.60;12.95;;;;;;;19.10;77.56;95131.03;5089638;28;20493;-69
2021/08/11 03:54:48;;;;;;;24.98;13.30;;;;;;;19.12;78.11;95139.44;5089409;28;20053;-69
2021/08/11 03:57:15;;;;;;;20.95;12.18;;;;;;;19.15;78.13;95130.97;5087967;28;20159;-68
2021/08/11 03:59:42;;;;;;;22.10;12.40;;;;;;;19.21;78.22;95131.72;5090858;28;20035;-68
2021/08/11 04:02:09;;;;;;;23.55;12.00;;;;;;;19.22;78.46;95123.53;5109653;27;20043;-69
2021/08/11 04:04:37;;;;;;;17.92;11.77;;;;;;;19.26;78.38;95139.59;5106988;27;20043;-69
2021/08/11 04:07:04;;;;;;;17.08;12.43;;;;;;;19.32;78.54;95140.34;5108067;28;20047;-69
2021/08/11 04:09:30;;;;;;;14.93;11.88;;;;;;;19.34;78.77;95135.56;5107668;28;20047;-69
2021/08/11 04:11:57;;;;;;;20.70;12.80;;;;;;;19.41;78.98;95141.31;5107793;28;20040;-69
2021/08/11 04:14:24;;;;;;;19.58;12.52;;;;;;;19.45;78.42;95143.13;5107873;27;20051;-69
2021/08/11 04:16:51;;;;;;;21.10;11.50;;;;;;;19.50;78.04;95144.94;5107555;28;20134;-69
2021/08/11 04:19:17;;;;;;;32.20;12.55;;;;;;;19.54;78.03;95145.94;5109446;27;20043;-68
2021/08/11 04:21:44;;;;;;;31.20;13.13;;;;;;;19.58;77.42;95141.69;5108058;28;20436;-68
2021/08/11 04:24:11;;;;;;;25.00;13.90;;;;;;;19.72;77.76;95156.88;5105249;28;20131;-69
2021/08/11 04:26:37;;;;;;;21.38;12.38;;;;;;;19.71;77.40;95155.28;5108029;27;20147;-69
2021/08/11 04:29:04;;;;;;;21.30;12.25;;;;;;;19.75;78.60;95153.69;5108247;28;20126;-69
2021/08/11 04:31:31;;;;;;;20.17;13.35;;;;;;;19.80;78.01;95154.41;5108156;27;20047;-68
2021/08/11 04:33:58;;;;;;;19.58;12.52;;;;;;;19.77;78.78;95159.47;5106769;27;21979;-68
2021/08/11 04:36:24;;;;;;;17.88;11.93;;;;;;;19.81;79.62;95160.50;5107355;28;20044;-68
2021/08/11 04:38:51;;;;;;;16.38;12.38;;;;;;;19.89;78.86;95162.50;5107804;27;20047;-68
2021/08/11 04:41:18;;;;;;;17.52;12.60;;;;;;;19.94;78.04;95162.47;5107048;28;20050;-69
2021/08/11 04:43:45;;;;;;;23.65;12.02;;;;;;;19.98;78.19;95160.81;5107405;28;20035;-69
2021/08/11 04:46:13;;;;;;;18.88;12.80;;;;;;;20.01;77.23;95162.91;5106136;28;20036;-69
2021/08/11 04:48:40;;;;;;;16.63;13.32;;;;;;;20.06;75.91;95162.06;5107100;27;20592;-69
2021/08/11 04:51:07;;;;;;;26.42;13.57;;;;;;;20.01;76.16;95164.78;5108363;27;20079;-69
2021/08/11 04:53:33;;;;;;;27.20;14.75;;;;;;;20.02;77.07;95156.56;5106956;28;20048;-68
2021/08/11 04:56:00;;;;;;;80.70;17.55;;;;;;;20.04;77.15;95149.13;5106522;28;20476;-70
2021/08/11 04:58:27;;;;;;;71.50;18.33;;;;;;;20.04;77.21;95149.13;5106823;28;20134;-68
2021/08/11 05:00:53;;;;;;;66.30;18.17;;;;;;;20.08;76.70;95143.25;5105849;27;20047;-68
2021/08/11 05:03:20;;;;;;;80.72;18.85;;;;;;;20.12;76.45;95141.66;5106416;27;20067;-69
2021/08/11 05:05:47;;;;;;;48.42;18.20;;;;;;;20.16;76.92;95150.56;5109245;27;20048;-69
2021/08/11 05:08:14;;;;;;;46.00;15.40;;;;;;;20.22;76.94;95146.78;5111271;27;20539;-69
2021/08/11 05:10:41;;;;;;;49.78;15.98;;;;;;;20.21;77.13;95142.59;5109857;27;20119;-69
2021/08/11 05:13:07;;;;;;;55.45;15.32;;;;;;;20.31;77.58;95150.41;5112878;27;20047;-70
2021/08/11 05:15:34;;;;;;;42.10;15.80;;;;;;;20.40;77.74;95145.22;5107175;27;20048;-69
2021/08/11 05:18:01;;;;;;;45.65;16.30;;;;;;;20.48;76.96;95159.69;5106913;28;20056;-69
2021/08/11 05:20:28;;;;;;;41.85;16.23;;;;;;;20.63;76.79;95164.78;5105452;28;20142;-70
2021/08/11 05:22:55;;;;;;;32.50;15.07;;;;;;;20.75;75.97;95157.22;5106187;28;20126;-69
2021/08/11 05:25:21;;;;;;;24.30;13.98;;;;;;;20.82;75.15;95156.88;5106553;28;20052;-69
2021/08/11 05:27:48;;;;;;;25.75;13.95;;;;;;;20.86;74.88;95151.78;5106740;28;20050;-69
2021/08/11 05:30:15;;;;;;;26.60;12.93;;;;;;;20.83;74.30;95136.47;5106374;28;20039;-68
2021/08/11 05:32:46;;;;;;;26.13;13.43;;;;;;;20.92;74.42;95147.97;5107079;28;20071;-69
2021/08/11 05:35:13;;;;;;;26.02;13.23;;;;;;;20.91;73.89;95141.91;5106966;28;20444;-69
2021/08/11 05:37:40;;;;;;;24.17;14.00;;;;;;;21.03;74.29;95152.06;5105124;27;20055;-68
2021/08/11 05:40:08;;;;;;;24.60;14.95;;;;;;;21.08;73.04;95151.94;5105158;28;20043;-68
2021/08/11 05:42:34;;;;;;;23.17;13.75;;;;;;;21.08;73.14;95149.31;5106445;28;20040;-69
2021/08/11 05:45:01;;;;;;;15.73;13.57;;;;;;;21.25;72.97;95158.56;5105786;28;20057;-68
2021/08/11 05:47:28;;;;;;;17.80;12.60;;;;;;;21.37;72.93;95162.34;5105095;28;20054;-69
2021/08/11 05:49:55;;;;;;;23.33;13.65;;;;;;;21.49;72.12;95164.56;5106549;28;20051;-69
2021/08/11 05:52:21;;;;;;;17.95;13.50;;;;;;;21.62;71.50;95160.34;5105723;28;20156;-68
2021/08/11 05:54:49;;;;;;;19.83;12.68;;;;;;;21.73;70.62;95158.28;5108324;28;20126;-69
2021/08/11 05:57:16;;;;;;;15.30;12.90;;;;;;;21.87;71.11;95163.63;5107700;27;20712;-68
2021/08/11 05:59:44;;;;;;;16.30;12.75;;;;;;;22.00;69.89;95172.66;5109651;27;20120;-68
2021/08/11 06:02:11;;;;;;;21.38;13.43;;;;;;;22.11;69.01;95172.16;5105144;28;20039;-69
2021/08/11 06:04:45;;;;;;;19.55;14.00;;;;;;;22.27;68.24;95172.69;5092015;28;20093;-69
2021/08/11 06:07:12;;;;;;;16.10;11.52;;;;;;;22.37;66.86;95170.91;5106253;28;20114;-69
2021/08/11 06:09:39;;;;;;;17.08;11.48;;;;;;;22.44;66.15;95163.31;5106628;28;20043;-69
2021/08/11 06:12:06;;;;;;;15.60;11.57;;;;;;;22.60;64.99;95164.56;5106726;28;20043;-69
2021/08/11 06:14:33;;;;;;;16.85;11.40;;;;;;;22.64;64.97;95157.56;5107962;28;20485;-69
2021/08/11 06:17:00;;;;;;;20.10;12.32;;;;;;;22.71;65.05;95162.47;5106615;28;20126;-69
2021/08/11 06:19:27;;;;;;;24.83;12.73;;;;;;;22.80;66.40;95167.84;5105835;28;20059;-69
2021/08/11 06:21:53;;;;;;;17.75;12.32;;;;;;;22.80;66.29;95162.53;5106433;28;20039;-69
2021/08/11 06:24:20;;;;;;;22.23;11.48;;;;;;;22.86;64.74;95161.31;5105877;28;20039;-69
2021/08/11 06:26:47;;;;;;;22.83;10.82;;;;;;;22.88;64.73;95145.88;5107682;28;20509;-69
2021/08/11 06:29:14;;;;;;;28.88;12.18;;;;;;;22.93;63.20;95140.44;5108301;28;20044;-70
2021/08/11 06:31:40;;;;;;;30.17;13.07;;;;;;;23.06;63.59;95160.88;5105444;28;20516;-69
2021/08/11 06:34:07;;;;;;;42.42;12.88;;;;;;;22.90;63.94;95135.72;5104606;28;20059;-69
2021/08/11 06:36:35;;;;;;;39.20;12.68;;;;;;;23.12;64.25;95174.03;5106529;28;20062;-69
2021/08/11 06:39:02;;;;;;;36.00;12.32;;;;;;;23.21;64.30;95161.59;5105399;28;20047;-69
2021/08/11 06:41:29;;;;;;;28.92;12.60;;;;;;;23.41;63.07;95166.44;5105003;28;20059;-70
2021/08/11 06:44:14;;;;;;;35.15;11.48;;;;;;;23.48;62.82;95155.38;5086335;28;20126;-70
2021/08/11 06:46:41;;;;;;;25.55;10.80;;;;;;;23.70;61.28;95162.50;5086153;28;20047;-70
2021/08/11 06:49:08;;;;;;;30.00;11.52;;;;;;;23.93;61.47;95173.09;5088718;28;20790;-70
2021/08/11 06:51:35;;;;;;;25.25;12.35;;;;;;;24.18;60.29;95166.28;5105388;28;21432;-71
2021/08/11 06:54:02;;;;;;;26.55;12.52;;;;;;;24.35;59.24;95166.34;5107234;28;20097;-70
2021/08/11 06:56:29;;;;;;;19.13;11.05;;;;;;;24.57;58.55;95162.78;5103846;28;20052;-70
2021/08/11 06:58:55;;;;;;;18.60;11.93;;;;;;;24.72;57.44;95152.78;5107837;28;20035;-70
2021/08/11 07:01:22;;;;;;;19.10;12.35;;;;;;;24.83;57.25;95159.38;5111056;27;20046;-70
2021/08/11 07:03:49;;;;;;;24.65;13.10;;;;;;;24.95;58.16;95162.19;5111218;27;20104;-70
2021/08/11 07:06:16;;;;;;;23.00;12.75;;;;;;;24.94;59.35;95157.97;5095796;27;20067;-69
2021/08/11 07:08:43;;;;;;;24.23;11.93;;;;;;;24.85;60.00;95148.38;5112813;27;20070;-72
2021/08/11 07:11:10;;;;;;;30.70;13.95;;;;;;;24.81;60.70;95150.91;5108713;27;20042;-72
2021/08/11 07:13:37;;;;;;;19.73;11.52;;;;;;;24.85;59.25;95149.19;5110193;27;20035;-71
2021/08/11 07:16:07;;;;;;;23.42;10.82;;;;;;;25.07;58.29;95153.56;5109627;27;21752;-72
2021/08/11 07:18:33;;;;;;;24.48;12.63;;;;;;;25.25;55.54;95148.25;5109204;27;20054;-72
2021/08/11 07:21:01;;;;;;;19.20;12.15;;;;;;;25.29;57.48;95147.28;5107533;28;20035;-72
2021/08/11 07:23:28;;;;;;;18.88;11.43;;;;;;;25.47;54.38;95149.91;5108907;27;20447;-73
2021/08/11 07:25:55;;;;;;;21.27;10.88;;;;;;;25.64;53.84;95149.88;5109115;27;20043;-70
2021/08/11 07:28:21;;;;;;;22.92;13.48;;;;;;;25.80;54.69;95152.00;5114989;27;20109;-71
2021/08/11 07:30:48;;;;;;;21.52;13.70;;;;;;;25.96;53.40;95139.72;5113521;27;20039;-69
2021/08/11 07:33:16;;;;;;;16.52;10.63;;;;;;;26.17;51.70;95150.44;5089917;28;20032;-71
2021/08/11 07:35:43;;;;;;;24.30;12.10;;;;;;;26.28;50.81;95150.84;5108097;27;20040;-69
2021/08/11 07:38:09;;;;;;;23.20;11.82;;;;;;;26.42;50.49;95156.72;5109049;28;20040;-70
2021/08/11 07:40:38;;;;;;;19.63;10.90;;;;;;;26.59;49.74;95149.72;5108711;27;20043;-69
2021/08/11 07:43:06;;;;;;;18.70;12.32;;;;;;;26.65;50.34;95153.75;5110028;27;20049;-70
2021/08/11 07:45:35;;;;;;;17.92;11.38;;;;;;;26.77;50.16;95145.81;5107448;28;20118;-70
2021/08/11 07:48:04;;;;;;;18.70;10.02;;;;;;;26.89;50.14;95137.88;5109454;27;20046;-69
2021/08/11 07:50:34;;;;;;;19.27;10.93;;;;;;;27.04;49.28;95141.81;5107907;28;20035;-69
2021/08/11 07:53:01;;;;;;;14.90;10.13;;;;;;;27.16;49.03;95135.75;5108176;27;20042;-69
2021/08/11 07:55:28;;;;;;;19.90;9.50;;;;;;;27.34;47.61;95148.97;5107122;27;20100;-69
2021/08/11 07:57:55;;;;;;;20.95;9.38;;;;;;;27.56;46.92;95148.56;5109933;27;20040;-71
2021/08/11 08:00:22;;;;;;;14.60;9.23;;;;;;;27.77;46.40;95142.38;5110442;27;20497;-70
2021/08/11 08:02:50;;;;;;;17.05;9.13;;;;;;;27.91;46.06;95145.53;5106021;28;20043;-69
2021/08/11 08:05:18;;;;;;;11.48;7.95;;;;;;;27.99;44.89;95152.66;5108087;27;20084;-70
2021/08/11 08:07:45;;;;;;;14.52;8.02;;;;;;;28.09;45.38;95143.41;5107969;28;20070;-70
2021/08/11 08:10:13;;;;;;;14.27;8.15;;;;;;;28.22;43.75;95136.16;5112044;27;20046;-70
2021/08/11 08:12:43;;;;;;;17.50;7.57;;;;;;;28.30;43.42;95127.19;5108282;27;20043;-69
2021/08/11 08:15:12;;;;;;;16.70;7.47;;;;;;;28.46;42.96;95129.19;5102843;27;20076;-70
2021/08/11 08:17:39;;;;;;;16.73;7.43;;;;;;;28.56;43.09;95131.44;5105215;27;20147;-70
2021/08/11 08:20:18;;;;;;;20.52;7.80;;;;;;;28.78;42.73;95135.50;5104788;27;20097;-71
2021/08/11 08:22:47;;;;;;;16.52;7.80;;;;;;;28.96;41.53;95130.66;5106153;27;20044;-70
2021/08/11 08:25:20;;;;;;;11.35;8.02;;;;;;;29.10;40.93;95128.34;5110674;27;20443;-70
2021/08/11 08:27:49;;;;;;;18.67;7.85;;;;;;;29.28;40.62;95131.53;5106786;27;20039;-70
2021/08/11 08:30:33;;;;;;;13.00;7.28;;;;;;;29.43;39.79;95124.63;5109079;27;20432;-71
2021/08/11 08:33:00;;;;;;;16.58;7.22;;;;;;;29.38;39.37;95130.25;5103168;27;20118;-70
2021/08/11 08:35:27;;;;;;;10.50;7.32;;;;;;;29.70;40.53;95130.28;5103913;27;20562;-71
2021/08/11 08:37:54;;;;;;;11.10;7.90;;;;;;;30.04;39.12;95138.78;5089527;28;20071;-72
2021/08/11 08:40:21;;;;;;;14.65;8.30;;;;;;;30.25;40.21;95133.09;5112638;27;20047;-71
2021/08/11 08:42:48;;;;;;;11.40;8.05;;;;;;;29.75;40.28;95127.38;5111186;27;20055;-71
2021/08/11 08:45:16;;;;;;;10.20;8.10;;;;;;;29.86;41.13;95117.66;5112879;27;20046;-71
2021/08/11 08:47:43;;;;;;;10.50;7.47;;;;;;;30.16;39.03;95114.50;5110587;27;20516;-71
2021/08/11 08:50:11;;;;;;;23.60;8.25;;;;;;;30.54;38.66;95121.09;5109968;27;20481;-71
2021/08/11 08:52:38;;;;;;;10.85;7.10;;;;;;;30.60;39.47;95114.31;5109517;27;20283;-72
2021/08/11 08:55:06;;;;;;;12.55;7.07;;;;;;;30.75;37.15;95118.06;5104625;27;20048;-71
2021/08/11 08:57:35;;;;;;;17.48;7.72;;;;;;;31.02;36.65;95112.84;5113741;27;20040;-71
2021/08/11 09:00:09;;;;;;;10.63;7.38;;;;;;;31.31;35.45;95116.06;5110510;27;20521;-71
2021/08/11 09:02:40;;;;;;;13.05;7.90;;;;;;;31.67;35.04;95112.09;5109646;27;20047;-72
2021/08/11 09:05:09;;;;;;;15.07;7.63;;;;;;;31.92;35.49;95107.09;5106063;28;20051;-71
2021/08/11 09:07:42;;;;;;;12.10;6.70;;;;;;;32.15;33.98;95100.94;5108308;27;20067;-72
2021/08/11 09:10:15;;;;;;;;;;;;;;;31.87;35.03;95095.88;5106927;28;20056;-72
2021/08/11 09:13:06;;;;;;;10.07;5.70;;;;;;;31.99;35.20;95101.06;5106633;27;19966;-72
2021/08/11 09:15:37;;;;;;;11.18;7.53;;;;;;;32.34;34.77;95100.03;5105265;28;20134;-71
2021/08/11 09:18:13;;;;;;;10.02;5.82;;;;;;;32.67;33.98;95102.03;5107550;27;20046;-71
2021/08/11 09:20:41;;;;;;;9.52;5.82;;;;;;;33.00;32.36;95097.00;5109036;27;20425;-71
2021/08/11 09:23:07;;;;;;;9.82;5.70;;;;;;;33.14;30.46;95091.78;5105868;28;20039;-72
2021/08/11 09:25:36;;;;;;;9.98;5.57;;;;;;;33.25;31.01;95098.06;5107826;27;20067;-72
2021/08/11 09:28:17;;;;;;;11.15;4.82;;;;;;;33.42;31.98;95085.09;5105845;28;20116;-72
2021/08/11 09:30:58;;;;;;;9.15;5.07;;;;;;;33.28;31.17;95080.38;5088514;28;20051;-71
2021/08/11 09:33:25;;;;;;;11.13;6.88;;;;;;;33.34;28.51;95098.53;5105463;27;20064;-72
2021/08/11 09:35:53;;;;;;;10.10;5.40;;;;;;;33.51;27.97;95093.66;5102958;27;20063;-71
2021/08/11 09:38:21;;;;;;;11.95;5.53;;;;;;;33.74;28.62;95101.59;5105469;27;20055;-72
2021/08/11 09:40:49;;;;;;;9.45;5.25;;;;;;;34.00;27.69;95103.34;5105625;27;20052;-71
2021/08/11 09:43:18;;;;;;;10.05;5.18;;;;;;;34.04;27.66;95085.22;5105151;27;20056;-72
2021/08/11 09:45:53;;;;;;;8.75;5.40;;;;;;;34.17;26.90;95101.13;5106111;27;20405;-72
2021/08/11 09:48:22;;;;;;;10.73;5.50;;;;;;;34.51;25.68;95109.09;5104676;27;20067;-72
2021/08/11 09:50:53;;;;;;;8.52;4.93;;;;;;;34.03;28.24;95091.81;5103609;28;20063;-72
2021/08/11 09:53:25;;;;;;;13.32;5.03;;;;;;;34.22;26.82;95098.13;5100596;27;20036;-72
2021/08/11 09:56:00;;;;;;;8.52;4.88;;;;;;;34.63;24.82;95095.25;5103317;28;20066;-71
2021/08/11 09:58:28;;;;;;;7.40;5.15;;;;;;;35.06;23.60;95089.22;5104722;28;20044;-72
2021/08/11 10:00:55;;;;;;;10.73;5.07;;;;;;;34.91;23.74;95074.88;5102097;28;20572;-72
2021/08/11 10:03:22;;;;;;;8.07;5.40;;;;;;;35.33;23.52;95065.31;5102566;28;20074;-72
2021/08/11 10:05:51;;;;;;;7.55;5.65;;;;;;;35.41;23.16;95072.28;5102901;28;20120;-72
2021/08/11 10:08:29;;;;;;;9.80;5.90;;;;;;;35.79;23.97;95067.28;5106742;28;20050;-73
2021/08/11 10:10:58;;;;;;;12.77;4.60;;;;;;;35.49;25.59;95068.44;5070362;28;20570;-73
2021/08/11 10:13:26;;;;;;;6.55;5.43;;;;;;;34.51;25.79;95063.88;5105494;28;20043;-72
2021/08/11 10:15:53;;;;;;;8.60;4.78;;;;;;;34.64;26.02;95075.13;5105258;28;20062;-72
2021/08/11 10:18:26;;;;;;;9.32;5.00;;;;;;;34.97;23.30;95071.44;5098418;28;20039;-73
2021/08/11 10:20:58;;;;;;;18.55;5.25;;;;;;;34.92;25.87;95073.72;5104492;27;20044;-72
2021/08/11 10:23:25;;;;;;;7.53;5.03;;;;;;;35.21;23.18;95075.34;5101982;28;20545;-73
2021/08/11 10:25:52;;;;;;;6.43;4.63;;;;;;;35.47;22.19;95059.13;5103508;28;20480;-71
2021/08/11 10:28:21;;;;;;;7.35;5.20;;;;;;;35.92;22.12;95063.00;5084742;28;20063;-72
2021/08/11 10:30:49;;;;;;;6.22;4.53;;;;;;;36.15;20.71;95059.09;5102993;28;20066;-73
2021/08/11 10:33:18;;;;;;;7.72;5.22;;;;;;;36.23;20.97;95055.25;5105672;28;20058;-73
2021/08/11 10:35:46;;;;;;;12.57;4.75;;;;;;;36.21;21.49;95054.06;5109201;27;20517;-73
2021/08/11 10:38:15;;;;;;;13.98;4.70;;;;;;;36.69;23.94;95053.56;5109455;27;20453;-73
2021/08/11 10:40:49;;;;;;;10.18;4.35;;;;;;;36.99;21.72;95047.59;5109066;27;20055;-73
2021/08/11 10:43:15;;;;;;;5.13;3.75;;;;;;;37.34;22.19;95045.81;5109579;27;20392;-73
2021/08/11 10:45:51;;;;;;;9.27;4.75;;;;;;;37.56;19.68;95042.94;5109294;27;20071;-73
2021/08/11 10:48:18;;;;;;;8.05;4.25;;;;;;;38.01;19.51;95048.38;5109653;27;20126;-73
2021/08/11 10:50:45;;;;;;;8.50;4.70;;;;;;;37.93;19.83;95044.19;5108438;27;20104;-73
2021/08/11 10:53:13;;;;;;;10.23;4.95;;;;;;;38.08;18.13;95039.38;5105538;27;20051;-73
2021/08/11 10:55:45;;;;;;;11.95;4.50;;;;;;;38.03;18.30;95041.38;5106522;28;20059;-73
2021/08/11 10:58:38;;;;;;;6.97;4.20;;;;;;;37.92;16.88;95037.97;5105683;27;20044;-73
2021/08/11 11:01:29;;;;;;;5.53;4.00;;;;;;;37.99;18.27;95031.69;5106069;27;20060;-73
2021/08/11 11:03:57;;;;;;;5.50;3.95;;;;;;;38.49;17.57;95030.41;5104284;28;20039;-73
2021/08/11 11:07:03;;;;;;;5.38;4.00;;;;;;;38.89;17.67;95026.00;5106554;27;20524;-73
2021/08/11 11:09:29;;;;;;;7.53;4.20;;;;;;;38.27;17.29;95018.97;5107584;27;20047;-74
2021/08/11 11:11:56;;;;;;;7.05;4.35;;;;;;;38.54;16.98;95017.13;5107510;27;20402;-73
2021/08/11 11:14:57;;;;;;;9.20;4.15;;;;;;;38.84;17.04;95018.28;5108388;27;20027;-73
2021/08/11 11:17:26;;;;;;;6.47;4.22;;;;;;;38.82;16.73;95020.66;5106530;27;20889;-73
2021/08/11 11:20:06;;;;;;;5.75;4.05;;;;;;;38.93;16.79;95015.84;5108482;27;20166;-73
2021/08/11 11:22:42;;;;;;;5.28;3.92;;;;;;;38.92;17.14;95014.31;5107449;27;20547;-73
2021/08/11 11:25:10;;;;;;;5.55;3.92;;;;;;;38.41;18.86;95021.53;5108024;27;20063;-73
2021/08/11 11:27:52;;;;;;;6.45;4.60;;;;;;;39.06;19.83;95012.56;5106394;27;20043;-73
2021/08/11 11:30:27;;;;;;;6.57;4.22;;;;;;;39.17;17.67;95008.50;5105736;27;20054;-73
2021/08/11 11:32:55;;;;;;;10.50;4.90;;;;;;;38.83;18.41;95005.13;5107217;27;20471;-72